Time;durP1;ratioP1;P1;durP2;ratioP2;P2;SDS_P1;SDS_P2;PMS_P1;PMS_P2;Temp;Humidity;BMP_temperature;BMP_pressure;BME280_temperature;BME280_humidity;BME280_pressure;Samples;Min_cycle;Max_cycle;Signal;HPM_P1;HPM_P2
2023/07/20 00:00:25;;;;;;;;;;;;;;;17.95;74.41;97854.41;2619801;28;19932;-85
2023/07/20 00:02:02;;;;;;;;;;;;;;;17.88;73.21;97859.25;2619562;28;19924;-84
2023/07/20 00:03:19;;;;;;;;;;;;;;;17.80;72.89;97867.72;2619530;28;19960;-83
2023/07/20 00:04:34;;;;;;;;;;;;;;;17.88;72.49;97862.78;2618824;28;19929;-84
2023/07/20 00:05:50;;;;;;;;;;;;;;;17.77;72.94;97862.63;2619798;28;19925;-84
2023/07/20 00:07:05;;;;;;;;;;;;;;;17.64;74.54;97865.25;2619191;28;19932;-86
2023/07/20 00:08:21;;;;;;;;;;;;;;;17.70;73.66;97866.63;2619231;28;20009;-84
2023/07/20 00:09:36;;;;;;;;;;;;;;;17.77;73.60;97867.94;2624236;28;20015;-84
2023/07/20 00:10:52;;;;;;;;;;;;;;;17.63;75.04;97866.19;2622006;28;20418;-85
2023/07/20 00:12:07;;;;;;;;;;;;;;;17.63;74.73;97867.06;2619979;28;20383;-84
2023/07/20 00:13:23;;;;;;;;;;;;;;;17.52;75.40;97858.97;2618846;28;19959;-83
2023/07/20 00:14:38;;;;;;;;;;;;;;;17.63;74.70;97864.41;2619087;28;19928;-84
2023/07/20 00:15:54;;;;;;;;;;;;;;;17.46;75.96;97870.81;2618838;28;19928;-84
2023/07/20 00:17:10;;;;;;;;;;;;;;;17.39;77.11;97869.53;2619512;28;19929;-84
2023/07/20 00:18:25;;;;;;;;;;;;;;;17.38;77.31;97872.25;2619461;28;19929;-84
2023/07/20 00:19:41;;;;;;;;;;;;;;;17.37;76.57;97874.03;2618852;28;19932;-85
2023/07/20 00:20:56;;;;;;;;;;;;;;;17.20;77.26;97875.97;2619166;28;19924;-85
2023/07/20 00:22:13;;;;;;;;;;;;;;;17.12;77.58;97872.13;2618990;28;19928;-83
2023/07/20 00:23:28;;;;;;;;;;;;;;;17.07;78.00;97875.94;2619288;28;19980;-84
2023/07/20 00:24:43;;;;;;;;;;;;;;;17.17;78.12;97875.31;2619477;28;20783;-85
2023/07/20 00:25:59;;;;;;;;;;;;;;;17.22;77.54;97878.53;2618607;28;20504;-84
2023/07/20 00:27:14;;;;;;;;;;;;;;;17.24;78.11;97871.34;2619480;28;20471;-84
2023/07/20 00:28:30;;;;;;;;;;;;;;;17.20;78.56;97864.56;2617898;28;19928;-84
2023/07/20 00:29:45;;;;;;;;;;;;;;;17.36;77.86;97867.91;2619014;28;19928;-85
2023/07/20 00:31:00;;;;;;;;;;;;;;;17.24;78.57;97874.00;2619340;28;20041;-85
2023/07/20 00:32:16;;;;;;;;;;;;;;;17.20;80.26;97875.16;2619672;28;20537;-85
2023/07/20 00:33:32;;;;;;;;;;;;;;;17.05;82.10;97869.91;2619130;28;20343;-84
2023/07/20 00:34:47;;;;;;;;;;;;;;;17.29;80.34;97866.59;2619398;28;20297;-83
2023/07/20 00:36:03;;;;;;;;;;;;;;;17.04;82.73;97870.00;2619347;28;19971;-86
2023/07/20 00:37:18;;;;;;;;;;;;;;;17.23;82.62;97874.94;2619606;28;19977;-85
2023/07/20 00:38:33;;;;;;;;;;;;;;;17.15;84.00;97882.50;2619165;28;19935;-84
2023/07/20 00:39:49;;;;;;;;;;;;;;;16.95;87.97;97890.75;2619480;28;19924;-84
2023/07/20 00:41:04;;;;;;;;;;;;;;;16.99;88.86;97895.84;2619412;28;19924;-82
2023/07/20 00:42:20;;;;;;;;;;;;;;;16.99;90.40;97891.44;2619572;28;19924;-84
2023/07/20 00:43:35;;;;;;;;;;;;;;;17.03;91.00;97890.28;2618025;28;20046;-84
2023/07/20 00:44:51;;;;;;;;;;;;;;;17.03;92.52;97884.16;2612440;28;19932;-85
2023/07/20 00:46:07;;;;;;;;;;;;;;;17.16;87.49;97885.06;2618449;28;19932;-85
2023/07/20 00:47:23;;;;;;;;;;;;;;;17.20;87.59;97881.28;2619244;28;19928;-85
2023/07/20 00:48:39;;;;;;;;;;;;;;;17.01;91.91;97892.19;2619352;28;19931;-84
2023/07/20 00:49:55;;;;;;;;;;;;;;;16.78;93.75;97885.66;2618449;28;19928;-85
2023/07/20 00:51:10;;;;;;;;;;;;;;;16.88;93.50;97883.28;2619528;28;19928;-85
2023/07/20 00:52:27;;;;;;;;;;;;;;;16.93;93.60;97876.78;2619064;28;19938;-84
2023/07/20 00:53:42;;;;;;;;;;;;;;;16.93;93.99;97882.06;2618884;28;19928;-85
2023/07/20 00:54:58;;;;;;;;;;;;;;;16.85;95.83;97891.41;2618828;28;19932;-84
2023/07/20 00:56:14;;;;;;;;;;;;;;;16.81;94.82;97890.75;2619489;28;19928;-84
2023/07/20 00:57:30;;;;;;;;;;;;;;;16.77;95.18;97889.25;2618760;28;20547;-84
2023/07/20 00:58:45;;;;;;;;;;;;;;;16.83;94.11;97886.22;2619014;28;19971;-84
2023/07/20 01:00:03;;;;;;;;;;;;;;;16.83;94.05;97893.31;2618976;28;20403;-84
2023/07/20 01:01:18;;;;;;;;;;;;;;;16.80;94.59;97889.06;2619364;28;20002;-85
2023/07/20 01:02:34;;;;;;;;;;;;;;;16.80;94.48;97894.34;2618730;28;19924;-85
2023/07/20 01:03:49;;;;;;;;;;;;;;;16.78;93.56;97893.59;2619319;28;19928;-84
2023/07/20 01:05:06;;;;;;;;;;;;;;;16.79;94.02;97898.81;2619142;28;19928;-84
2023/07/20 01:06:29;;;;;;;;;;;;;;;16.84;93.24;97895.00;2618691;28;20347;-85
2023/07/20 01:07:48;;;;;;;;;;;;;;;16.87;91.63;97887.75;2619232;28;19924;-85
2023/07/20 01:09:19;;;;;;;;;;;;;;;16.84;91.98;97892.38;2618894;28;19929;-85
2023/07/20 01:10:39;;;;;;;;;;;;;;;16.80;92.45;97891.69;2617919;28;20323;-84
2023/07/20 01:12:13;;;;;;;;;;;;;;;16.93;90.54;97892.63;2618424;28;19929;-85
2023/07/20 01:13:29;;;;;;;;;;;;;;;16.81;92.42;97896.03;2619009;28;19928;-84
2023/07/20 01:14:44;;;;;;;;;;;;;;;16.92;92.24;97896.22;2619513;28;19929;-84
2023/07/20 01:16:03;;;;;;;;;;;;;;;16.90;92.85;97898.13;2619272;28;19935;-84
2023/07/20 01:17:18;;;;;;;;;;;;;;;16.93;92.97;97894.44;2619474;28;20954;-85
2023/07/20 01:18:34;;;;;;;;;;;;;;;16.97;92.36;97901.22;2619279;28;19935;-85
2023/07/20 01:19:49;;;;;;;;;;;;;;;16.66;94.56;97895.22;2619087;28;19925;-85
2023/07/20 01:21:08;;;;;;;;;;;;;;;16.85;93.24;97896.72;2619745;28;19929;-85
2023/07/20 01:22:24;;;;;;;;;;;;;;;16.87;93.28;97892.16;2619529;28;19935;-85
2023/07/20 01:23:51;;;;;;;;;;;;;;;16.85;93.09;97889.63;2619370;28;20431;-85
2023/07/20 01:25:25;;;;;;;;;;;;;;;16.95;92.54;97895.19;2619263;28;19934;-85
2023/07/20 01:27:00;;;;;;;;;;;;;;;17.15;92.08;97893.97;2619399;28;19931;-85
2023/07/20 01:28:35;;;;;;;;;;;;;;;17.28;88.94;97899.31;2619461;28;19985;-85
2023/07/20 01:29:59;;;;;;;;;;;;;;;17.42;88.85;97894.91;2618555;28;19936;-85
2023/07/20 01:31:26;;;;;;;;;;;;;;;17.25;90.45;97893.34;2618951;28;19928;-84
2023/07/20 01:32:43;;;;;;;;;;;;;;;17.12;90.71;97898.59;2619093;28;19974;-85
2023/07/20 01:34:00;;;;;;;;;;;;;;;16.97;91.32;97897.72;2619200;28;19940;-85
2023/07/20 01:35:16;;;;;;;;;;;;;;;16.93;90.68;97902.38;2618936;28;19928;-85
2023/07/20 01:36:34;;;;;;;;;;;;;;;17.05;90.38;97896.34;2619015;28;20311;-84
2023/07/20 01:37:50;;;;;;;;;;;;;;;16.76;93.34;97906.94;2619237;28;19979;-85
2023/07/20 01:39:06;;;;;;;;;;;;;;;16.75;94.32;97912.31;2618978;28;20006;-85
2023/07/20 01:40:23;;;;;;;;;;;;;;;17.01;93.08;97907.22;2620662;28;19966;-85
2023/07/20 01:41:38;;;;;;;;;;;;;;;17.12;93.38;97901.22;2621162;28;20437;-85
2023/07/20 01:42:54;;;;;;;;;;;;;;;17.19;93.38;97895.44;2621742;28;19928;-85
2023/07/20 01:44:10;;;;;;;;;;;;;;;17.21;92.04;97893.56;2621019;28;19928;-85
2023/07/20 01:45:26;;;;;;;;;;;;;;;17.18;93.66;97895.53;2621249;28;20303;-85
2023/07/20 01:46:42;;;;;;;;;;;;;;;17.10;94.01;97898.69;2621530;28;20441;-85
2023/07/20 01:47:57;;;;;;;;;;;;;;;17.04;98.74;97897.28;2621534;28;19990;-85
2023/07/20 01:49:13;;;;;;;;;;;;;;;17.07;98.71;97899.75;2621160;28;19928;-85
2023/07/20 01:50:28;;;;;;;;;;;;;;;16.87;100.00;97900.09;2621084;28;20074;-86
2023/07/20 01:51:43;;;;;;;;;;;;;;;16.95;100.00;97901.31;2621523;28;19928;-85
2023/07/20 01:52:59;;;;;;;;;;;;;;;17.00;100.00;97897.59;2620763;28;19929;-85
2023/07/20 01:54:14;;;;;;;;;;;;;;;17.13;100.00;97900.28;2621415;28;19932;-86
2023/07/20 01:55:29;;;;;;;;;;;;;;;17.09;100.00;97902.28;2621043;28;20037;-85
2023/07/20 01:56:45;;;;;;;;;;;;;;;16.95;100.00;97901.31;2621394;28;19936;-85
2023/07/20 01:58:01;;;;;;;;;;;;;;;16.77;100.00;97902.47;2620817;28;19928;-85
2023/07/20 01:59:17;;;;;;;;;;;;;;;16.77;100.00;97898.06;2621316;28;19936;-85
2023/07/20 02:00:32;;;;;;;;;;;;;;;16.80;100.00;97897.00;2620760;28;19935;-85
2023/07/20 02:01:47;;;;;;;;;;;;;;;16.84;100.00;97900.31;2621303;28;19929;-85
2023/07/20 02:03:03;;;;;;;;;;;;;;;16.79;100.00;97892.66;2621243;28;19929;-85
2023/07/20 02:04:18;;;;;;;;;;;;;;;16.86;100.00;97898.41;2621379;28;19924;-85
2023/07/20 02:05:34;;;;;;;;;;;;;;;16.92;100.00;97898.88;2620992;28;20399;-85
2023/07/20 02:06:49;;;;;;;;;;;;;;;17.06;100.00;97903.34;2620540;28;19924;-85
2023/07/20 02:08:05;;;;;;;;;;;;;;;16.99;100.00;97899.38;2620295;28;19925;-86
2023/07/20 02:09:20;;;;;;;;;;;;;;;16.79;100.00;97896.16;2621415;28;20295;-86
2023/07/20 02:10:36;;;;;;;;;;;;;;;16.65;100.00;97904.94;2620656;28;20329;-85
2023/07/20 02:11:51;;;;;;;;;;;;;;;16.52;100.00;97898.69;2621170;28;19932;-85
2023/07/20 02:13:06;;;;;;;;;;;;;;;16.57;100.00;97899.28;2620715;28;19928;-85
2023/07/20 02:14:24;;;;;;;;;;;;;;;16.54;100.00;97901.25;2620433;28;20453;-84
2023/07/20 02:15:40;;;;;;;;;;;;;;;16.56;100.00;97889.66;2620064;28;19928;-85
2023/07/20 02:16:57;;;;;;;;;;;;;;;16.60;100.00;97892.94;2621290;28;20572;-85
2023/07/20 02:18:13;;;;;;;;;;;;;;;16.70;100.00;97894.06;2620570;28;19971;-85
2023/07/20 02:19:29;;;;;;;;;;;;;;;16.97;100.00;97890.66;2620970;28;19924;-84
2023/07/20 02:20:45;;;;;;;;;;;;;;;16.95;100.00;97893.38;2620625;28;19924;-84
2023/07/20 02:22:01;;;;;;;;;;;;;;;16.84;100.00;97901.16;2620881;28;19928;-84
2023/07/20 02:23:16;;;;;;;;;;;;;;;16.86;100.00;97898.41;2620728;28;19935;-84
2023/07/20 02:24:32;;;;;;;;;;;;;;;16.74;100.00;97894.75;2620805;28;20299;-84
2023/07/20 02:25:48;;;;;;;;;;;;;;;16.75;100.00;97902.56;2621319;28;19928;-84
2023/07/20 02:27:03;;;;;;;;;;;;;;;16.66;100.00;97898.69;2620072;28;19924;-85
2023/07/20 02:28:19;;;;;;;;;;;;;;;16.75;100.00;97902.56;2620848;28;19924;-85
2023/07/20 02:29:35;;;;;;;;;;;;;;;16.71;100.00;97906.34;2621032;28;19931;-84
2023/07/20 02:30:53;;;;;;;;;;;;;;;16.52;100.00;97914.56;2620125;28;19924;-85
2023/07/20 02:32:12;;;;;;;;;;;;;;;16.41;100.00;97911.72;2614037;28;20300;-85
2023/07/20 02:33:27;;;;;;;;;;;;;;;16.48;100.00;97905.13;2620473;28;19928;-85
2023/07/20 02:34:42;;;;;;;;;;;;;;;16.37;100.00;97908.44;2620791;28;19928;-85
2023/07/20 02:35:58;;;;;;;;;;;;;;;16.41;100.00;97909.94;2620246;28;19938;-85
2023/07/20 02:37:14;;;;;;;;;;;;;;;16.50;100.00;97904.09;2620845;28;19928;-85
2023/07/20 02:38:29;;;;;;;;;;;;;;;16.46;100.00;97910.47;2620781;28;19936;-85
2023/07/20 02:39:44;;;;;;;;;;;;;;;16.38;100.00;97910.13;2620238;28;19924;-85
2023/07/20 02:41:00;;;;;;;;;;;;;;;16.41;100.00;97914.34;2620440;28;19924;-85
2023/07/20 02:42:15;;;;;;;;;;;;;;;16.33;100.00;97913.03;2620550;28;19935;-85
2023/07/20 02:43:31;;;;;;;;;;;;;;;16.36;100.00;97912.00;2620920;28;19928;-85
2023/07/20 02:44:46;;;;;;;;;;;;;;;16.38;100.00;97905.66;2620451;28;20368;-85
2023/07/20 02:46:01;;;;;;;;;;;;;;;16.26;100.00;97916.97;2620808;28;19968;-85
2023/07/20 02:47:17;;;;;;;;;;;;;;;16.22;100.00;97918.09;2620939;28;20333;-85
2023/07/20 02:48:32;;;;;;;;;;;;;;;16.16;100.00;97910.56;2620679;28;19967;-85
2023/07/20 02:49:47;;;;;;;;;;;;;;;16.23;100.00;97915.38;2620478;28;19928;-85
2023/07/20 02:51:03;;;;;;;;;;;;;;;16.10;100.00;97922.34;2620665;28;19959;-85
2023/07/20 02:52:18;;;;;;;;;;;;;;;16.17;100.00;97917.53;2621043;28;19994;-85
2023/07/20 02:53:34;;;;;;;;;;;;;;;16.19;100.00;97915.66;2620588;28;19924;-85
2023/07/20 02:54:49;;;;;;;;;;;;;;;16.28;100.00;97919.53;2620808;28;19974;-85
2023/07/20 02:56:04;;;;;;;;;;;;;;;16.26;100.00;97918.78;2620478;28;19960;-85
2023/07/20 02:57:20;;;;;;;;;;;;;;;16.19;100.00;97913.00;2620466;28;20394;-85
2023/07/20 02:58:40;;;;;;;;;;;;;;;16.06;100.00;97910.22;2619545;28;19924;-84
2023/07/20 02:59:55;;;;;;;;;;;;;;;16.14;100.00;97913.28;2620153;28;19928;-83
2023/07/20 03:01:12;;;;;;;;;;;;;;;16.22;100.00;97913.69;2619231;28;20380;-83
2023/07/20 03:02:29;;;;;;;;;;;;;;;16.15;100.00;97914.97;2620601;28;19986;-83
2023/07/20 03:03:47;;;;;;;;;;;;;;;16.00;100.00;97913.25;2619320;28;19936;-83
2023/07/20 03:05:05;;;;;;;;;;;;;;;16.09;100.00;97912.72;2620746;28;20197;-83
2023/07/20 03:06:22;;;;;;;;;;;;;;;16.08;100.00;97914.50;2620816;28;19963;-83
2023/07/20 03:07:37;;;;;;;;;;;;;;;16.03;100.00;97913.91;2620937;28;20395;-83
2023/07/20 03:08:53;;;;;;;;;;;;;;;16.11;100.00;97910.81;2620155;28;19932;-84
2023/07/20 03:10:09;;;;;;;;;;;;;;;15.90;100.00;97911.13;2620572;28;20318;-83
2023/07/20 03:11:24;;;;;;;;;;;;;;;15.95;100.00;97903.81;2620155;28;19929;-83
2023/07/20 03:12:39;;;;;;;;;;;;;;;16.04;100.00;97917.41;2620638;28;20280;-83
2023/07/20 03:13:55;;;;;;;;;;;;;;;15.98;100.00;97913.31;2620123;28;19925;-83
2023/07/20 03:15:11;;;;;;;;;;;;;;;15.92;100.00;97913.69;2620162;28;19931;-83
2023/07/20 03:16:26;;;;;;;;;;;;;;;15.87;100.00;97915.75;2620941;28;20050;-83
2023/07/20 03:17:41;;;;;;;;;;;;;;;15.79;100.00;97918.81;2620249;28;19979;-85
2023/07/20 03:18:57;;;;;;;;;;;;;;;15.82;100.00;97913.34;2620417;28;19982;-83
2023/07/20 03:20:12;;;;;;;;;;;;;;;15.85;100.00;97918.44;2620420;28;19962;-83
2023/07/20 03:21:28;;;;;;;;;;;;;;;15.78;100.00;97917.97;2620694;28;19928;-83
2023/07/20 03:22:44;;;;;;;;;;;;;;;15.78;100.00;97932.94;2619994;28;19932;-83
2023/07/20 03:23:59;;;;;;;;;;;;;;;15.86;100.00;97932.50;2619927;28;19935;-85
2023/07/20 03:25:15;;;;;;;;;;;;;;;15.84;100.00;97927.31;2619715;28;19935;-83
2023/07/20 03:26:30;;;;;;;;;;;;;;;15.84;100.00;97926.44;2620530;28;19928;-85
2023/07/20 03:27:45;;;;;;;;;;;;;;;15.82;100.00;97934.47;2620567;28;19933;-83
2023/07/20 03:29:01;;;;;;;;;;;;;;;15.77;100.00;97926.81;2620480;28;20025;-82
2023/07/20 03:30:16;;;;;;;;;;;;;;;15.73;100.00;97932.34;2620273;28;19928;-83
2023/07/20 03:31:32;;;;;;;;;;;;;;;15.82;100.00;97929.19;2620588;28;19978;-83
2023/07/20 03:32:47;;;;;;;;;;;;;;;15.99;100.00;97928.22;2619235;28;19951;-83
2023/07/20 03:34:02;;;;;;;;;;;;;;;16.18;100.00;97929.81;2620452;28;19924;-84
2023/07/20 03:35:18;;;;;;;;;;;;;;;16.17;100.00;97934.22;2620224;28;20313;-84
2023/07/20 03:36:33;;;;;;;;;;;;;;;16.15;100.00;97927.34;2619673;28;19925;-86
2023/07/20 03:37:49;;;;;;;;;;;;;;;16.10;100.00;97927.63;2619802;28;19939;-84
2023/07/20 03:39:04;;;;;;;;;;;;;;;15.92;100.00;97935.69;2620581;28;19974;-84
2023/07/20 03:40:20;;;;;;;;;;;;;;;15.72;100.00;97931.53;2619538;28;20379;-84
2023/07/20 03:41:36;;;;;;;;;;;;;;;15.51;100.00;97928.31;2620455;28;19935;-84
2023/07/20 03:42:52;;;;;;;;;;;;;;;15.47;100.00;97926.78;2620003;28;19928;-84
2023/07/20 03:44:07;;;;;;;;;;;;;;;15.47;100.00;97925.00;2620311;28;19967;-84
2023/07/20 03:45:23;;;;;;;;;;;;;;;15.53;100.00;97929.06;2620002;28;19932;-84
2023/07/20 03:46:39;;;;;;;;;;;;;;;15.56;100.00;97934.19;2620668;28;19924;-84
2023/07/20 03:47:54;;;;;;;;;;;;;;;15.58;100.00;97929.66;2619731;28;19935;-84
2023/07/20 03:49:10;;;;;;;;;;;;;;;15.71;100.00;97935.06;2620279;28;19930;-83
2023/07/20 03:50:25;;;;;;;;;;;;;;;15.79;100.00;97934.66;2619770;28;19924;-84
2023/07/20 03:51:41;;;;;;;;;;;;;;;15.94;100.00;97941.72;2619948;28;19929;-84
2023/07/20 03:52:56;;;;;;;;;;;;;;;15.98;100.00;97938.91;2619919;28;19936;-84
2023/07/20 03:54:11;;;;;;;;;;;;;;;16.05;100.00;97930.53;2620551;28;19943;-84
2023/07/20 03:55:28;;;;;;;;;;;;;;;16.05;100.00;97937.56;2619650;28;20307;-84
2023/07/20 03:56:43;;;;;;;;;;;;;;;15.98;100.00;97933.63;2619571;28;20274;-84
2023/07/20 03:57:58;;;;;;;;;;;;;;;16.05;100.00;97934.94;2619648;28;19928;-84
2023/07/20 03:59:14;;;;;;;;;;;;;;;16.13;100.00;97940.63;2619962;28;19929;-83
2023/07/20 04:00:29;;;;;;;;;;;;;;;16.19;100.00;97942.06;2619748;28;19929;-86
2023/07/20 04:01:45;;;;;;;;;;;;;;;16.21;100.00;97937.53;2620142;28;19928;-84
2023/07/20 04:03:00;;;;;;;;;;;;;;;16.17;100.00;97942.13;2618986;28;19929;-83
2023/07/20 04:04:16;;;;;;;;;;;;;;;16.06;100.00;97944.56;2619958;28;19925;-84
2023/07/20 04:05:31;;;;;;;;;;;;;;;15.98;100.00;97944.16;2619146;28;19928;-84
2023/07/20 04:06:47;;;;;;;;;;;;;;;15.92;100.00;97945.38;2619694;28;19950;-83
2023/07/20 04:08:02;;;;;;;;;;;;;;;15.88;100.00;97949.94;2619400;28;19935;-83
2023/07/20 04:09:17;;;;;;;;;;;;;;;15.86;100.00;97943.91;2619416;28;19971;-83
2023/07/20 04:10:33;;;;;;;;;;;;;;;15.85;100.00;97952.78;2618959;28;19936;-83
2023/07/20 04:11:48;;;;;;;;;;;;;;;15.84;100.00;97944.94;2620034;28;19928;-83
2023/07/20 04:13:04;;;;;;;;;;;;;;;15.81;100.00;97953.91;2619368;28;19981;-83
2023/07/20 04:14:19;;;;;;;;;;;;;;;15.94;100.00;97944.34;2619122;28;20291;-83
2023/07/20 04:15:35;;;;;;;;;;;;;;;16.09;100.00;97941.75;2618748;28;19934;-83
2023/07/20 04:16:51;;;;;;;;;;;;;;;15.90;100.00;97953.38;2619526;28;19928;-85
2023/07/20 04:18:06;;;;;;;;;;;;;;;15.89;100.00;97951.69;2619276;28;19935;-85
2023/07/20 04:19:22;;;;;;;;;;;;;;;15.85;100.00;97946.63;2619205;28;19932;-85
2023/07/20 04:20:37;;;;;;;;;;;;;;;15.82;100.00;97953.78;2619792;28;19935;-85
2023/07/20 04:21:53;;;;;;;;;;;;;;;15.85;100.00;97949.25;2619916;28;19931;-84
2023/07/20 04:23:08;;;;;;;;;;;;;;;15.92;100.00;97951.53;2620042;28;19954;-85
2023/07/20 04:24:23;;;;;;;;;;;;;;;16.07;100.00;97951.56;2619480;28;19924;-83
2023/07/20 04:25:39;;;;;;;;;;;;;;;15.99;100.00;97961.72;2619677;28;20032;-85
2023/07/20 04:26:55;;;;;;;;;;;;;;;15.95;100.00;97955.75;2619664;28;19932;-85
2023/07/20 04:28:10;;;;;;;;;;;;;;;15.76;100.00;97950.66;2619726;28;19936;-83
2023/07/20 04:29:26;;;;;;;;;;;;;;;15.74;100.00;97950.75;2619362;28;20312;-85
2023/07/20 04:30:42;;;;;;;;;;;;;;;15.75;100.00;97952.44;2619917;28;19952;-85
2023/07/20 04:31:57;;;;;;;;;;;;;;;15.80;100.00;97946.91;2618974;28;20338;-85
2023/07/20 04:33:12;;;;;;;;;;;;;;;15.96;100.00;97949.53;2619798;28;19974;-85
2023/07/20 04:34:28;;;;;;;;;;;;;;;16.01;100.00;97944.00;2619432;28;20311;-85
2023/07/20 04:35:53;;;;;;;;;;;;;;;16.06;100.00;97952.47;2619705;28;19928;-86
2023/07/20 04:37:09;;;;;;;;;;;;;;;16.11;100.00;97947.81;2618858;28;19937;-87
2023/07/20 04:38:24;;;;;;;;;;;;;;;16.07;100.00;97951.56;2618998;28;19928;-87
2023/07/20 04:39:39;;;;;;;;;;;;;;;16.28;100.00;97956.50;2619710;28;19951;-85
2023/07/20 04:40:55;;;;;;;;;;;;;;;16.32;100.00;97950.97;2619448;28;19935;-86
2023/07/20 04:42:10;;;;;;;;;;;;;;;16.26;100.00;97950.47;2619110;28;19971;-88
2023/07/20 04:43:26;;;;;;;;;;;;;;;16.35;100.00;97949.94;2618432;28;20387;-89
2023/07/20 04:44:42;;;;;;;;;;;;;;;16.41;100.00;97946.91;2619538;28;19925;-90
2023/07/20 04:45:58;;;;;;;;;;;;;;;16.42;100.00;97943.34;2619351;28;20047;-88
2023/07/20 04:47:13;;;;;;;;;;;;;;;16.49;100.00;97949.97;2619629;28;19928;-87
2023/07/20 04:48:28;;;;;;;;;;;;;;;16.46;100.00;97942.19;2619425;28;19928;-86
2023/07/20 04:49:44;;;;;;;;;;;;;;;16.52;100.00;97955.06;2619265;28;19928;-85
2023/07/20 04:50:59;;;;;;;;;;;;;;;16.45;100.00;97953.72;2618299;28;19932;-85
2023/07/20 04:52:15;;;;;;;;;;;;;;;16.34;100.00;97956.13;2619519;28;19928;-85
2023/07/20 04:53:30;;;;;;;;;;;;;;;16.46;100.00;97954.56;2619517;28;19959;-87
2023/07/20 04:54:46;;;;;;;;;;;;;;;16.46;100.00;97950.13;2618539;28;19928;-88
2023/07/20 04:56:01;;;;;;;;;;;;;;;16.53;100.00;97961.16;2618845;28;20328;-86
2023/07/20 04:57:17;;;;;;;;;;;;;;;16.66;100.00;97956.84;2619762;28;19933;-86
2023/07/20 04:58:32;;;;;;;;;;;;;;;16.70;100.00;97959.31;2619244;28;19982;-86
2023/07/20 04:59:47;;;;;;;;;;;;;;;16.86;100.00;97960.06;2619527;28;20407;-85
2023/07/20 05:01:03;;;;;;;;;;;;;;;16.95;100.00;97963.94;2619251;28;19931;-86
2023/07/20 05:02:19;;;;;;;;;;;;;;;16.92;100.00;97964.13;2619570;28;19939;-84
2023/07/20 05:03:34;;;;;;;;;;;;;;;16.99;100.00;97956.69;2619442;28;20295;-84
2023/07/20 05:04:50;;;;;;;;;;;;;;;16.97;100.00;97958.53;2618517;28;20015;-86
2023/07/20 05:06:05;;;;;;;;;;;;;;;16.91;100.00;97951.88;2618448;28;19928;-87
2023/07/20 05:07:20;;;;;;;;;;;;;;;17.10;100.00;97950.75;2619666;28;19936;-89
2023/07/20 05:08:36;;;;;;;;;;;;;;;17.23;100.00;97959.59;2619617;28;19960;-89
2023/07/20 05:09:51;;;;;;;;;;;;;;;17.32;100.00;97961.69;2618393;28;19929;-91
2023/07/20 05:11:07;;;;;;;;;;;;;;;17.39;100.00;97955.97;2612860;28;19928;-92
2023/07/20 05:12:22;;;;;;;;;;;;;;;17.32;100.00;97964.31;2618862;28;19940;-90
2023/07/20 05:13:38;;;;;;;;;;;;;;;17.51;100.00;97960.50;2620101;28;19929;-91
2023/07/20 05:14:53;;;;;;;;;;;;;;;17.54;100.00;97957.63;2619061;28;19928;-94
2023/07/20 05:16:09;;;;;;;;;;;;;;;17.63;100.00;97958.84;2613283;28;19936;-92
2023/07/20 05:17:24;;;;;;;;;;;;;;;17.71;100.00;97958.34;2619387;28;20280;-92
2023/07/20 05:18:40;;;;;;;;;;;;;;;17.81;100.00;97959.44;2613157;28;19968;-93
2023/07/20 05:19:55;;;;;;;;;;;;;;;17.86;100.00;97961.78;2613293;28;19924;-93
2023/07/20 05:21:11;;;;;;;;;;;;;;;18.00;100.00;97955.56;2613304;28;19930;-92
2023/07/20 05:22:26;;;;;;;;;;;;;;;17.89;100.00;97956.28;2613222;28;19979;-92
2023/07/20 05:23:41;;;;;;;;;;;;;;;17.97;100.00;97958.44;2619492;28;19924;-89
2023/07/20 05:24:57;;;;;;;;;;;;;;;18.05;100.00;97953.50;2618956;28;19925;-89
2023/07/20 05:26:12;;;;;;;;;;;;;;;18.02;100.00;97959.84;2619678;28;19928;-92
2023/07/20 05:27:28;;;;;;;;;;;;;;;18.00;100.00;97966.16;2619880;28;20314;-92
2023/07/20 05:28:43;;;;;;;;;;;;;;;18.23;100.00;97954.09;2619522;28;19967;-94
2023/07/20 05:29:59;;;;;;;;;;;;;;;18.29;100.00;97960.75;2613723;28;19932;-94
2023/07/20 05:31:14;;;;;;;;;;;;;;;18.46;100.00;97963.13;2613834;28;19943;-93
2023/07/20 05:32:30;;;;;;;;;;;;;;;18.53;100.00;97966.19;2614025;28;19950;-95
2023/07/20 05:33:45;;;;;;;;;;;;;;;18.59;100.00;97964.94;2614118;28;20399;-95
2023/07/20 05:35:01;;;;;;;;;;;;;;;18.67;98.28;97961.75;2604918;28;20131;-95
2023/07/20 05:36:17;;;;;;;;;;;;;;;18.89;94.83;97961.09;2608576;28;19975;-95
2023/07/20 05:37:32;;;;;;;;;;;;;;;18.80;98.09;97956.44;2613149;28;19932;-94
2023/07/20 05:38:49;;;;;;;;;;;;;;;19.02;96.44;97961.97;2613126;28;19986;-93
2023/07/20 05:40:06;;;;;;;;;;;;;;;18.98;95.71;97957.78;2612812;28;20053;-94
2023/07/20 05:41:22;;;;;;;;;;;;;;;18.80;96.94;97952.00;2613137;28;19929;-94
2023/07/20 05:42:38;;;;;;;;;;;;;;;19.00;95.26;97958.59;2613698;28;19963;-95
2023/07/20 05:43:54;;;;;;;;;;;;;;;19.12;95.90;97961.31;2620664;28;19978;-94
2023/07/20 05:45:09;;;;;;;;;;;;;;;18.84;93.54;97963.22;2615057;28;19933;-95
2023/07/20 05:46:25;;;;;;;;;;;;;;;19.12;92.79;97963.94;2615217;28;19944;-94
2023/07/20 05:47:43;;;;;;;;;;;;;;;19.34;91.72;97961.47;2622485;28;19935;-95
2023/07/20 05:49:00;;;;;;;;;;;;;;;19.44;90.57;97966.13;2619651;28;19928;-93
2023/07/20 05:50:15;;;;;;;;;;;;;;;19.50;89.37;97968.31;2613141;28;19972;-90
2023/07/20 05:51:32;;;;;;;;;;;;;;;19.61;86.52;97957.78;2618577;28;19924;-93
2023/07/20 05:52:48;;;;;;;;;;;;;;;19.81;86.20;97962.59;2617875;28;20280;-90
2023/07/20 05:54:03;;;;;;;;;;;;;;;19.81;84.81;97963.41;2617217;28;19989;-91
2023/07/20 05:55:19;;;;;;;;;;;;;;;19.85;84.69;97964.91;2618517;28;20375;-88
2023/07/20 05:56:34;;;;;;;;;;;;;;;19.82;84.95;97967.78;2618572;28;20383;-90
2023/07/20 05:57:50;;;;;;;;;;;;;;;20.03;81.29;97964.53;2619235;28;19928;-88
2023/07/20 05:59:05;;;;;;;;;;;;;;;19.99;81.86;97960.41;2619534;28;19963;-91
2023/07/20 06:00:26;;;;;;;;;;;;;;;20.03;80.31;97972.50;2619635;28;19924;-92
2023/07/20 06:01:42;;;;;;;;;;;;;;;20.15;78.28;97968.06;2619090;28;19928;-94
2023/07/20 06:02:58;;;;;;;;;;;;;;;20.24;77.64;97964.72;2616820;28;19928;-92
2023/07/20 06:04:14;;;;;;;;;;;;;;;20.07;77.70;97973.13;2616699;28;19962;-90
2023/07/20 06:05:29;;;;;;;;;;;;;;;20.18;76.39;97974.00;2618772;28;19924;-92
2023/07/20 06:06:46;;;;;;;;;;;;;;;20.29;76.68;97970.53;2618714;28;19929;-91
2023/07/20 06:08:01;;;;;;;;;;;;;;;20.00;78.72;97968.25;2618459;28;19930;-90
2023/07/20 06:09:17;;;;;;;;;;;;;;;20.13;77.26;97965.53;2618732;28;19974;-90
2023/07/20 06:10:32;;;;;;;;;;;;;;;20.07;76.19;97967.81;2619021;28;19939;-93
2023/07/20 06:11:48;;;;;;;;;;;;;;;20.02;74.99;97968.97;2612838;28;19932;-93
2023/07/20 06:13:04;;;;;;;;;;;;;;;20.02;76.42;97973.47;2613793;28;19950;-94
2023/07/20 06:14:20;;;;;;;;;;;;;;;20.09;74.89;97976.50;2613547;28;19924;-93
2023/07/20 06:15:35;;;;;;;;;;;;;;;20.12;76.88;97971.81;2612176;28;20420;-93
2023/07/20 06:16:51;;;;;;;;;;;;;;;20.00;76.40;97962.09;2612242;28;19929;-94
2023/07/20 06:18:06;;;;;;;;;;;;;;;20.10;73.53;97963.09;2613565;28;20422;-96
2023/07/20 06:19:25;;;;;;;;;;;;;;;20.36;71.51;97960.28;2613481;28;20081;-94
2023/07/20 06:20:40;;;;;;;;;;;;;;;20.51;71.21;97958.25;2614267;28;20673;-94
2023/07/20 06:21:56;;;;;;;;;;;;;;;20.43;70.75;97965.97;2612412;28;19928;-89
2023/07/20 06:23:11;;;;;;;;;;;;;;;20.75;67.92;97965.31;2618255;28;19973;-86
2023/07/20 06:24:27;;;;;;;;;;;;;;;20.64;71.87;97954.66;2618430;28;19935;-86
2023/07/20 06:25:42;;;;;;;;;;;;;;;20.62;65.76;97962.75;2618589;28;19939;-86
2023/07/20 06:26:57;;;;;;;;;;;;;;;20.98;63.10;97955.56;2613953;28;19932;-88
2023/07/20 06:28:13;;;;;;;;;;;;;;;20.83;67.29;97965.59;2620627;28;19934;-88
2023/07/20 06:29:28;;;;;;;;;;;;;;;20.80;72.52;97962.28;2620136;28;19931;-91
2023/07/20 06:30:44;;;;;;;;;;;;;;;20.94;61.99;97961.25;2620954;28;19950;-91
2023/07/20 06:31:59;;;;;;;;;;;;;;;21.13;59.17;97963.31;2620802;28;19924;-91
2023/07/20 06:33:15;;;;;;;;;;;;;;;21.33;61.29;97966.16;2620870;28;19925;-94